Thunder radar more information blitzortung!


Radar de pluja more information rain snow radar


Visita la nostra xarxa de llocs de meteo:

Template documentation
and downloads

And another site



No particular awareness of the weather is required.    There are no Weather-warnings

Pagina Historial Weather Underground text

Diari Resum Octubre 5, 2017 Unitats:  Imperial    Mètric   Tant
« Previous Dia
SegĂźent Dia »
Diari Setmana Mensual Anual Personalitzada
  Maxima: Minima: Media:
Temperatura: 83.5 °F 58.6 °F 72.7 °F
Punt de rosada: 64.9 °F 55.9 °F 62.2 °F
Humitat: 93 % 51 % 71 %
Wind Speed: 11.5 mph 0 mph 3.8 mph
RĂ fegues de vent: 11.5 mph - -
Vent:- - SW
Pression baro: 30.3 in 30 in -
Precipitacions: 0 in    
Historical Graphs
 
 
Dades de taula per Octubre 5, 2017
Temps Temperatura Punt de rosada Pression baro Vent Wind Speed RĂ fegues de vent Humitat Rainfall Rate (Hourly)
00:00 62.8 °F 58.8 °F 30.2 in Calm     87 % 0 in
00:04 66.9 °F 62.6 °F 30.3 in Calm     86 % 0 in
00:10 62.6 °F 58.6 °F 30.2 in WNW 1 mph 1 mph 87 % 0 in
00:30 62.1 °F 58.5 °F 30.2 in Calm     88 % 0 in
01:00 61 °F 57.4 °F 30.2 in Calm     88 % 0 in
01:10 60.8 °F 57.6 °F 30.2 in Calm     89 % 0 in
01:20 60.4 °F 57.2 °F 30.2 in Calm     89 % 0 in
01:30 60.4 °F 57.2 °F 30.2 in Calm     89 % 0 in
01:40 60.1 °F 56.8 °F 30.2 in NW 1 mph 2 mph 89 % 0 in
01:50 59.9 °F 57 °F 30.2 in Calm     90 % 0 in
02:00 59.5 °F 56.3 °F 30.2 in Calm     89 % 0 in
02:10 59.2 °F 56.1 °F 30.2 in Calm     90 % 0 in
02:20 59.2 °F 56.1 °F 30.2 in Calm     90 % 0 in
02:50 59 °F 56.1 °F 30.2 in Calm     90 % 0 in
03:00 58.8 °F 56.1 °F 30.2 in Calm     91 % 0 in
03:10 58.6 °F 55.9 °F 30.2 in Calm     91 % 0 in
03:20 58.8 °F 56.1 °F 30.2 in Calm     91 % 0 in
03:30 58.8 °F 56.5 °F 30.2 in Calm     92 % 0 in
03:40 60.1 °F 57.9 °F 30.2 in Calm     93 % 0 in
03:50 60.1 °F 57.7 °F 30.2 in Calm   1 mph 92 % 0 in
04:00 59.7 °F 57 °F 30.2 in South 1 mph 2 mph 91 % 0 in
04:10 60.1 °F 57.4 °F 30.2 in SW 1 mph 2 mph 91 % 0 in
04:20 61.7 °F 59.4 °F 30.2 in Calm     92 % 0 in
04:40 63.3 °F 59.7 °F 30.2 in South 1 mph 2 mph 88 % 0 in
04:50 65.1 °F 61.2 °F 30.2 in SSW 1 mph 2 mph 87 % 0 in
05:00 66.2 °F 61.2 °F 30.2 in SSE 1 mph 2 mph 84 % 0 in
05:10 67.6 °F 62.2 °F 30.2 in SSE 1 mph 2 mph 83 % 0 in
05:20 69.3 °F 62.8 °F 30.2 in SE 1 mph 2 mph 80 % 0 in
05:30 70.2 °F 63 °F 30.2 in ESE 1 mph 3 mph 78 % 0 in
05:40 71.2 °F 63.7 °F 30.2 in SSE 1 mph 2 mph 77 % 0 in
05:45 71.6 °F 64 °F 30.2 in Calm   2 mph 77 % 0 in
10:45 72.1 °F 64.6 °F 30.2 in South 3.3 mph 3.3 mph 77 % 0 in
10:50 72.1 °F 64.2 °F 30.2 in WSW 1.2 mph 1.2 mph 76 % 0 in
10:55 72.9 °F 64.6 °F 30.2 in SSE 2.3 mph 2.3 mph 75 % 0 in
11:00 73.4 °F 64.6 °F 30.2 in SW 2.4 mph 2.4 mph 74 % 0 in
11:05 72.9 °F 64 °F 30.2 in South 4.6 mph 4.6 mph 74 % 0 in
11:10 73.4 °F 64.2 °F 30.2 in SW 4.6 mph 4.6 mph 73 % 0 in
11:15 72.7 °F 63.5 °F 30.2 in SW 3.5 mph 3.5 mph 73 % 0 in
11:20 73.4 °F 63.9 °F 30.2 in West 2.3 mph 2.3 mph 72 % 0 in
11:25 73.4 °F 63.9 °F 30.2 in ESE 1.6 mph 1.6 mph 72 % 0 in
11:30 74.8 °F 64.8 °F 30.2 in SW 2.3 mph 2.3 mph 71 % 0 in
11:35 75 °F 64.9 °F 30.2 in SW 5.8 mph 5.8 mph 71 % 0 in
11:40 74.7 °F 64.2 °F 30.2 in WSW 2.3 mph 2.4 mph 70 % 0 in
11:45 75.2 °F 63.9 °F 30.2 in West 3.8 mph 3.8 mph 68 % 0 in
11:50 75.4 °F 64 °F 30.2 in WSW 5.8 mph 5.8 mph 68 % 0 in
11:55 75.4 °F 64 °F 30.2 in SW 5.8 mph 5.8 mph 68 % 0 in
12:00 76.5 °F 64.8 °F 30.2 in WNW 4.6 mph 4.6 mph 67 % 0 in
12:05 76.3 °F 64.6 °F 30.2 in SSW 4.6 mph 4.6 mph 67 % 0 in
12:10 77 °F 63.9 °F 30.2 in SSW 2.3 mph 2.3 mph 64 % 0 in
12:15 76.8 °F 64.2 °F 30.2 in NW 3.3 mph 3.3 mph 65 % 0 in
12:20 77.5 °F 64.4 °F 30.2 in South 2.3 mph 3.3 mph 64 % 0 in
12:25 77.4 °F 63.9 °F 30.2 in WSW 5.8 mph 5.8 mph 63 % 0 in
12:30 77.4 °F 63.9 °F 30.2 in SW 5.8 mph 5.8 mph 63 % 0 in
12:35 77.5 °F 63.5 °F 30.2 in West 5.8 mph 5.8 mph 62 % 0 in
12:50 79.3 °F 64.8 °F 30.2 in SSE 4.7 mph 4.7 mph 61 % 0 in
12:55 79.2 °F 63.7 °F 30.2 in West 4.6 mph 4.6 mph 59 % 0 in
13:00 80.1 °F 64 °F 30.2 in South 4.3 mph 4.3 mph 58 % 0 in
13:05 79.2 °F 63.1 °F 30.2 in WSW 7.6 mph 7.6 mph 58 % 0 in
13:10 79.5 °F 63.9 °F 30.2 in West 6 mph 6 mph 59 % 0 in
13:15 80.1 °F 64 °F 30.1 in WSW 2.3 mph 2.3 mph 58 % 0 in
13:20 80.8 °F 63.7 °F 30.1 in WSW 3.8 mph 3.8 mph 56 % 0 in
13:25 81 °F 63.9 °F 30.1 in SW 6.9 mph 6.9 mph 56 % 0 in
13:26 81 °F 63.9 °F 30.1 in SW 3.5 mph 3.5 mph 56 % 0 in
13:36 81 °F 62.8 °F 30.1 in ESE 2.3 mph 2.3 mph 54 % 0 in
13:41 81.1 °F 63 °F 30.1 in SW 5.9 mph 5.9 mph 54 % 0 in
13:46 81 °F 62.8 °F 30.1 in SSW 5.8 mph 5.8 mph 54 % 0 in
13:51 81.7 °F 63 °F 30.1 in South 3.5 mph 3.5 mph 53 % 0 in
13:56 82.4 °F 63.5 °F 30.1 in South 5.8 mph 5.8 mph 53 % 0 in
14:01 81.7 °F 62.2 °F 30.1 in West 6.9 mph 6.9 mph 52 % 0 in
14:06 82 °F 62.8 °F 30.1 in WSW 2.3 mph 2.3 mph 52 % 0 in
14:08 82.8 °F 63.3 °F 30.1 in SW 5.6 mph 5.6 mph 52 % 0 in
14:13 82.6 °F 63.1 °F 30.1 in SSW 3.5 mph 3.5 mph 52 % 0 in
14:18 82.9 °F 63 °F 30.1 in South 3.5 mph 3.5 mph 51 % 0 in
14:23 82.6 °F 62.6 °F 30.1 in SSW 5.8 mph 5.8 mph 51 % 0 in
14:28 82.8 °F 62.8 °F 30.1 in SSE 9.2 mph 9.2 mph 51 % 0 in
14:33 82.2 °F 62.8 °F 30.1 in SSE 10.4 mph 10.4 mph 52 % 0 in
14:38 82.9 °F 63.5 °F 30.1 in SSW 8.1 mph 8.1 mph 52 % 0 in
14:43 82 °F 62.8 °F 30.1 in SSW 4.6 mph 4.6 mph 52 % 0 in
14:48 83.1 °F 63.7 °F 30.1 in SW 6.9 mph 6.9 mph 52 % 0 in
14:53 82.9 °F 63.5 °F 30.1 in West 5.8 mph 5.8 mph 52 % 0 in
14:58 82.9 °F 63.5 °F 30.1 in SW 5.9 mph 5.9 mph 52 % 0 in
15:03 83.5 °F 64 °F 30.1 in WSW 4.6 mph 4.6 mph 52 % 0 in
15:08 83.1 °F 63.1 °F 30.1 in SW 6.9 mph 6.9 mph 51 % 0 in
15:13 83.1 °F 63.1 °F 30.1 in West 6.9 mph 6.9 mph 51 % 0 in
15:18 83.1 °F 63.1 °F 30.1 in WSW 7.4 mph 7.4 mph 51 % 0 in
15:23 83.5 °F 63.3 °F 30.1 in SW 8.1 mph 8.1 mph 51 % 0 in
15:28 83.3 °F 63.3 °F 30.1 in SW 4.6 mph 4.6 mph 51 % 0 in
15:33 82.9 °F 63 °F 30.1 in SW 8.1 mph 8.1 mph 51 % 0 in
15:38 83.3 °F 63.9 °F 30.1 in South 4.6 mph 4.6 mph 52 % 0 in
15:43 83.3 °F 63.3 °F 30.1 in WSW 6.9 mph 6.9 mph 51 % 0 in
15:48 82.4 °F 62.4 °F 30.1 in SW 8.1 mph 8.1 mph 51 % 0 in
15:58 82.9 °F 63 °F 30.1 in SW 4.6 mph 4.6 mph 51 % 0 in
16:08 82.4 °F 63 °F 30.1 in WSW 9.2 mph 9.2 mph 52 % 0 in
16:13 82 °F 62.8 °F 30.1 in SW 5.8 mph 5.8 mph 52 % 0 in
16:18 82.2 °F 62.8 °F 30.1 in SSW 8.7 mph 8.7 mph 52 % 0 in
16:23 82 °F 62.8 °F 30.1 in SW 9.2 mph 9.2 mph 52 % 0 in
16:28 81.5 °F 62.2 °F 30.1 in SSW 11.5 mph 11.5 mph 52 % 0 in
16:33 81.5 °F 62.8 °F 30.1 in WSW 6 mph 6 mph 53 % 0 in
16:38 81.7 °F 63 °F 30.1 in South 4.6 mph 4.6 mph 53 % 0 in
16:43 80.8 °F 62.1 °F 30.1 in SW 10.4 mph 10.4 mph 53 % 0 in
16:48 81.1 °F 63 °F 30.1 in SW 7.4 mph 7.4 mph 54 % 0 in
16:49 81.1 °F 63 °F 30.1 in SSW 6.9 mph 6.9 mph 54 % 0 in
16:54 80.6 °F 62.4 °F 30.1 in SSW 8.1 mph 8.1 mph 54 % 0 in
16:59 80.6 °F 62.4 °F 30.1 in SSE 6.9 mph 6.9 mph 54 % 0 in
17:04 80.6 °F 62.4 °F 30.1 in West 8.1 mph 8.1 mph 54 % 0 in
17:14 80.4 °F 63.3 °F 30.1 in SW 6.9 mph 6.9 mph 56 % 0 in
17:19 79.9 °F 62.8 °F 30.1 in West 8.1 mph 8.1 mph 56 % 0 in
17:24 79.9 °F 62.8 °F 30.1 in West 10.4 mph 10.4 mph 56 % 0 in
17:29 79.9 °F 62.8 °F 30.1 in SW 6 mph 6 mph 56 % 0 in
17:34 79.9 °F 62.8 °F 30.1 in WSW 5.8 mph 5.8 mph 56 % 0 in
17:39 79.5 °F 63 °F 30.1 in WSW 8.1 mph 8.1 mph 57 % 0 in
17:44 79.5 °F 63 °F 30.1 in SW 9.2 mph 9.2 mph 57 % 0 in
17:49 79.2 °F 62.6 °F 30.1 in WSW 8.1 mph 8.1 mph 57 % 0 in
17:54 79 °F 63 °F 30.1 in SW 6.9 mph 6.9 mph 58 % 0 in
17:59 79 °F 63 °F 30.1 in SSW 5.8 mph 5.8 mph 58 % 0 in
18:04 78.8 °F 62.8 °F 30.1 in SSW 4.6 mph 4.6 mph 58 % 0 in
18:09 78.3 °F 62.8 °F 30.1 in SW 6.9 mph 6.9 mph 59 % 0 in
18:14 78.1 °F 62.6 °F 30.1 in West 6.9 mph 6.9 mph 59 % 0 in
18:19 78.3 °F 62.8 °F 30.1 in SW 4.9 mph 4.9 mph 59 % 0 in
18:24 77.9 °F 62.4 °F 30.1 in SSW 5.9 mph 5.9 mph 59 % 0 in
18:29 77.4 °F 62.4 °F 30.1 in WSW 6.9 mph 6.9 mph 60 % 0 in
18:34 77.2 °F 62.2 °F 30.1 in SW 4.6 mph 4.6 mph 60 % 0 in
18:39 77 °F 62.1 °F 30.1 in West 5.8 mph 5.8 mph 60 % 0 in
18:44 76.8 °F 62.8 °F 30 in SW 5.8 mph 5.8 mph 62 % 0 in
18:49 76.5 °F 62.4 °F 30 in SW 5.4 mph 5.4 mph 62 % 0 in
18:54 75.9 °F 62.4 °F 30 in SSW 5.8 mph 5.8 mph 63 % 0 in
18:59 75.7 °F 62.2 °F 30.1 in SW 5.8 mph 5.8 mph 63 % 0 in
19:04 75.2 °F 61.7 °F 30.1 in WSW 5.8 mph 5.8 mph 63 % 0 in
19:09 74.8 °F 62.2 °F 30.1 in SW 5.8 mph 5.8 mph 65 % 0 in
19:14 74.5 °F 61.9 °F 30.1 in SW 5.8 mph 5.8 mph 65 % 0 in
19:19 74.1 °F 62.1 °F 30.1 in SW 5.8 mph 5.8 mph 66 % 0 in
19:20 67.6 °F 63 °F 30.1 in WSW 1 mph 2 mph 85 % 0 in
19:24 73.8 °F 61.7 °F 30.1 in WSW 2.4 mph 3.6 mph 66 % 0 in
19:29 73.4 °F 61.9 °F 30.1 in SW 5.8 mph 5.8 mph 67 % 0 in
19:30 67.5 °F 63.1 °F 30.1 in WSW 1 mph 1 mph 86 % 0 in
19:34 73 °F 61.9 °F 30.1 in SW 5.8 mph 5.8 mph 68 % 0 in
19:39 72.7 °F 61.5 °F 30.1 in West 5.8 mph 5.8 mph 68 % 0 in
19:40 67.1 °F 62.8 °F 30.1 in Calm     86 % 0 in
19:44 72.5 °F 61.7 °F 30.1 in South 5.8 mph 5.8 mph 69 % 0 in
19:49 72.1 °F 61.9 °F 30.1 in SSW 3.5 mph 3.5 mph 70 % 0 in
19:50 66.6 °F 62.2 °F 30.1 in Calm   2 mph 86 % 0 in
19:54 71.8 °F 61.5 °F 30.1 in SW 5.8 mph 5.8 mph 70 % 0 in
19:59 71.6 °F 61.7 °F 30.1 in SW 6.9 mph 6.9 mph 71 % 0 in
20:00 66.4 °F 62.1 °F 30.1 in Calm   1 mph 86 % 0 in
20:04 71.2 °F 62.1 °F 30.1 in SSW 6.2 mph 6.2 mph 73 % 0 in
20:09 70.9 °F 61.9 °F 30.1 in WSW 9.2 mph 9.2 mph 73 % 0 in
20:10 66.4 °F 62.4 °F 30.1 in Calm   1 mph 87 % 0 in
20:14 70.7 °F 61.5 °F 30.1 in WSW 6.9 mph 6.9 mph 73 % 0 in
20:19 70.5 °F 61.9 °F 30.1 in WSW 5.8 mph 5.8 mph 74 % 0 in
20:20 66.4 °F 62.4 °F 30.1 in Calm     87 % 0 in
20:24 70.3 °F 61.7 °F 30.1 in WSW 4.6 mph 4.6 mph 74 % 0 in
20:29 70.2 °F 61.9 °F 30.1 in SW 4.7 mph 4.7 mph 75 % 0 in
20:30 66.6 °F 63 °F 30.1 in Calm   1 mph 88 % 0 in
20:34 70.2 °F 61.9 °F 30.1 in SW 5.8 mph 5.8 mph 75 % 0 in
20:39 70 °F 61.7 °F 30.1 in SW 5.8 mph 5.8 mph 75 % 0 in
20:40 66.6 °F 63 °F 30.1 in Calm   1 mph 88 % 0 in
20:44 69.8 °F 61.5 °F 30.1 in SW 3.5 mph 3.5 mph 75 % 0 in
20:49 69.8 °F 61.9 °F 30.1 in WSW 2.3 mph 2.3 mph 76 % 0 in
20:50 66.6 °F 63 °F 30.1 in Calm   1 mph 88 % 0 in
20:54 69.6 °F 62.1 °F 30.1 in WSW 2.3 mph 2.3 mph 77 % 0 in
20:59 69.4 °F 61.9 °F 30.1 in West 3.5 mph 3.5 mph 77 % 0 in
21:00 66.6 °F 63 °F 30.1 in Calm     88 % 0 in
21:04 69.4 °F 61.9 °F 30.1 in WSW 3.5 mph 3.5 mph 77 % 0 in
21:09 69.4 °F 61.9 °F 30.1 in WSW 4 mph 4 mph 77 % 0 in
21:10 66.6 °F 63 °F 30.1 in Calm   2 mph 88 % 0 in
21:14 69.3 °F 62.1 °F 30.1 in WSW 2.4 mph 2.4 mph 78 % 0 in
21:19 69.1 °F 61.9 °F 30.1 in West 3.5 mph 3.5 mph 78 % 0 in
21:20 66.4 °F 62.8 °F 30.1 in Calm   3 mph 88 % 0 in
21:24 69.1 °F 61.9 °F 30.1 in SW 3.5 mph 3.5 mph 78 % 0 in
21:29 68.9 °F 61.9 °F 30.1 in West 3.5 mph 3.5 mph 78 % 0 in
21:30 66.4 °F 62.8 °F 30.1 in Calm   1 mph 88 % 0 in
21:34 68.9 °F 62.1 °F 30.1 in WSW 2.9 mph 2.9 mph 79 % 0 in
21:39 68.7 °F 61.9 °F 30.1 in SW 4.6 mph 4.6 mph 79 % 0 in
21:40 66.4 °F 62.8 °F 30.1 in Calm   1 mph 88 % 0 in
21:44 68.7 °F 61.9 °F 30.1 in SW 4.6 mph 4.6 mph 79 % 0 in
21:49 68.7 °F 62.2 °F 30.1 in West 3.6 mph 3.6 mph 80 % 0 in
21:50 66.4 °F 62.8 °F 30 in NNW 1 mph 2 mph 88 % 0 in
21:54 68.5 °F 62.1 °F 30.1 in WSW 4.6 mph 4.6 mph 80 % 0 in
21:59 68.5 °F 62.1 °F 30.1 in SW 4.6 mph 4.6 mph 80 % 0 in
22:00 66.4 °F 62.8 °F 30.1 in Calm   3 mph 88 % 0 in
22:04 68.5 °F 62.1 °F 30.1 in WSW 4.6 mph 4.6 mph 80 % 0 in
22:09 68.4 °F 62.2 °F 30.1 in WSW 3.5 mph 3.5 mph 81 % 0 in
22:10 66.4 °F 62.8 °F 30.1 in Calm   2 mph 88 % 0 in
22:14 68.4 °F 62.2 °F 30.1 in WSW 2.3 mph 2.3 mph 81 % 0 in
22:19 68.4 °F 62.2 °F 30.1 in SW 5.8 mph 5.8 mph 81 % 0 in
22:20 66.4 °F 62.8 °F 30 in Calm   1 mph 88 % 0 in
22:24 68.4 °F 62.6 °F 30.1 in West 1.2 mph   82 % 0 in
22:29 68.2 °F 62.4 °F 30.1 in WSW 2.3 mph 2.3 mph 82 % 0 in
22:30 66.2 °F 62.4 °F 30.1 in NNW 1 mph 2 mph 88 % 0 in
22:34 68.2 °F 62.4 °F 30.1 in SW 2.3 mph   82 % 0 in
22:39 68.2 °F 62.4 °F 30.1 in WSW 1.2 mph 1.2 mph 82 % 0 in
22:40 66.2 °F 62.4 °F 30.1 in Calm   2 mph 88 % 0 in
22:49 68 °F 62.2 °F 30.1 in West 4.6 mph 4.6 mph 82 % 0 in
22:50 66.2 °F 62.4 °F 30.1 in NW 1 mph 1 mph 88 % 0 in
22:54 68 °F 62.2 °F 30.1 in West 2.3 mph 2.3 mph 82 % 0 in
22:59 68 °F 62.2 °F 30.1 in WSW 2.3 mph 2.3 mph 82 % 0 in
23:00 66.4 °F 62.8 °F 30 in Calm     88 % 0 in
23:04 68 °F 62.6 °F 30.1 in SW 1.2 mph 1.2 mph 83 % 0 in
23:09 67.8 °F 62.8 °F 30.1 in West 2.3 mph 2.3 mph 84 % 0 in
23:10 66.4 °F 62.8 °F 30 in North 1 mph 2 mph 88 % 0 in
23:14 68 °F 62.6 °F 30.1 in WSW 2.6 mph 2.6 mph 83 % 0 in
23:19 67.8 °F 62.8 °F 30.1 in SW 3.5 mph 3.5 mph 84 % 0 in
23:20 66.4 °F 62.8 °F 30.1 in North 1 mph 2 mph 88 % 0 in
23:29 67.6 °F 63 °F 30.1 in SW 1.2 mph 1.2 mph 85 % 0 in
23:30 66.2 °F 62.2 °F 30 in NNW 1 mph 2 mph 87 % 0 in
23:34 67.8 °F 63.1 °F 30.1 in SW 1.2 mph   85 % 0 in
23:40 66 °F 62.1 °F 30 in NNW 2 mph 3 mph 87 % 0 in
23:44 67.8 °F 62.8 °F 30.1 in West 2.6 mph 2.6 mph 84 % 0 in
23:49 67.8 °F 63.1 °F 30.1 in West 3.5 mph 3.5 mph 85 % 0 in
23:50 65.5 °F 61.5 °F 30.1 in NW 3 mph 4 mph 87 % 0 in
23:59 67.8 °F 63.1 °F 30.1 in WNW 2.3 mph 2.3 mph 85 % 0 in
Meteo Sesrovires
Elogis d' Weather Underground - 3.5 mb

Guio original per  Jim McMurry - jmcmurry@mwt.net Adaptat per a la plantilla per  Wim van der Kuil - Leuven-Template.eu

Trobareu la nostra informacio del temps tambe a:

Weather Underground

AWEKAS